Time;durP1;ratioP1;P1;durP2;ratioP2;P2;SDS_P1;SDS_P2;PMS_P1;PMS_P2;Temp;Humidity;BMP_temperature;BMP_pressure;BME280_temperature;BME280_humidity;BME280_pressure;Samples;Min_cycle;Max_cycle;Signal;HPM_P1;HPM_P2
2022/06/08 00:00:59;;;;;;;16.92;8.00;;;22.40;99.90;;;;;;4835065;24;20064;-81
2022/06/08 00:04:02;;;;;;;14.98;7.57;;;21.10;99.90;;;;;;4837403;24;20041;-81
2022/06/08 00:06:44;;;;;;;14.18;7.85;;;20.00;99.90;;;;;;4792270;29;20047;-95
2022/06/08 00:09:15;;;;;;;15.13;7.78;;;21.10;99.90;;;;;;4788429;29;20523;-95
2022/06/08 00:11:48;;;;;;;13.43;7.60;;;20.70;99.90;;;;;;4815219;24;20131;-96
2022/06/08 00:14:14;;;;;;;21.17;8.25;;;20.60;99.90;;;;;;4817048;29;20037;-83
2022/06/08 00:19:18;;;;;;;19.75;9.48;;;20.80;99.90;;;;;;4864401;24;20050;-85
2022/06/08 00:21:45;;;;;;;15.05;8.35;;;20.70;99.90;;;;;;4799810;29;20522;-84
2022/06/08 00:24:23;;;;;;;14.85;8.35;;;20.50;99.90;;;;;;4801262;29;20537;-95
2022/06/08 00:26:49;;;;;;;15.38;8.02;;;20.90;99.90;;;;;;5023921;24;20062;-92
2022/06/08 00:29:15;;;;;;;15.02;8.20;;;20.90;99.90;;;;;;4776884;30;20556;-93
2022/06/08 00:31:41;;;;;;;14.13;8.43;;;20.90;99.90;;;;;;4778845;30;20039;-84
2022/06/08 00:34:17;;;;;;;15.15;7.53;;;20.50;99.90;;;;;;4992783;24;20051;-95
2022/06/08 00:39:22;;;;;;;16.63;8.60;;;20.90;99.90;;;;;;4864697;24;20067;-94
2022/06/08 00:47:32;;;;;;;13.02;7.50;;;21.10;99.90;;;;;;4917041;24;20058;-93
2022/06/08 00:50:37;;;;;;;16.05;6.90;;;18.70;99.90;;;;;;4716551;30;20102;-94
2022/06/08 00:53:09;;;;;;;14.48;7.00;;;22.30;99.90;;;;;;4725545;30;20051;-92
2022/06/08 00:55:48;;;;;;;16.70;9.43;;;21.20;99.60;;;;;;4728807;30;20036;-95
2022/06/08 00:58:39;;;;;;;20.20;10.77;;;20.80;99.90;;;;;;4748789;24;20057;-84
2022/06/08 01:01:06;;;;;;;14.70;7.82;;;;;;;;;;4747530;30;20079;-81
2022/06/08 01:04:11;;;;;;;15.32;8.18;;;20.10;99.00;;;;;;4800803;24;20114;-94
2022/06/08 01:06:42;;;;;;;15.13;7.88;;;24.70;99.70;;;;;;4815973;29;20052;-91
2022/06/08 01:09:42;;;;;;;16.05;8.75;;;22.00;98.50;;;;;;4817990;29;20022;-88
2022/06/08 01:12:33;;;;;;;15.82;7.55;;;21.70;98.20;;;;;;4820184;29;20209;-83
2022/06/08 01:14:59;;;;;;;15.38;7.68;;;21.80;97.80;;;;;;4827590;24;20038;-82
2022/06/08 01:17:34;;;;;;;14.88;8.55;;;21.90;98.30;;;;;;4817592;29;20046;-94
2022/06/08 01:20:00;;;;;;;14.70;7.63;;;22.10;97.80;;;;;;4824801;24;20062;-85
2022/06/08 01:22:32;;;;;;;14.23;7.85;;;22.20;97.40;;;;;;4804176;29;20033;-95
2022/06/08 01:25:00;;;;;;;15.32;7.28;;;22.20;97.50;;;;;;4917569;24;20074;-83
2022/06/08 01:30:43;;;;;;;14.20;7.25;;;22.20;97.00;;;;;;4833778;24;20618;-82
2022/06/08 01:34:04;;;;;;;13.63;7.95;;;22.10;97.00;;;;;;4811869;29;20042;-95
2022/06/08 01:37:10;;;;;;;12.73;7.60;;;23.60;97.00;;;;;;4826068;29;20038;-85
2022/06/08 01:40:13;;;;;;;16.73;7.88;;;22.00;96.60;;;;;;4971661;24;20150;-86
2022/06/08 01:45:57;;;;;;;14.80;7.60;;;22.40;96.50;;;;;;4824462;24;20081;-95
2022/06/08 01:49:09;;;;;;;14.90;8.43;;;22.20;96.80;;;;;;4802000;29;20030;-89
2022/06/08 01:52:12;;;;;;;14.68;8.32;;;22.00;97.10;;;;;;4825029;29;20023;-91
2022/06/08 01:55:03;;;;;;;14.00;7.72;;;22.60;97.30;;;;;;4814754;29;20031;-84
2022/06/08 01:58:03;;;;;;;12.23;7.18;;;19.00;96.40;;;;;;4813072;29;20030;-86
2022/06/08 02:01:06;;;;;;;;;;;;;;;;;;;;;
2022/06/08 02:03:56;;;;;;;14.25;7.88;;;23.30;97.80;;;;;;4816247;29;20031;-83
2022/06/08 02:07:08;;;;;;;12.68;7.20;;;23.70;97.90;;;;;;4867903;24;20115;-88
2022/06/08 02:12:19;;;;;;;12.63;7.60;;;20.40;99.60;;;;;;4795139;29;20191;-95
2022/06/08 02:21:42;;;;;;;13.63;7.15;;;19.80;99.90;;;;;;4884732;24;20025;-80
2022/06/08 02:24:31;;;;;;;14.18;7.22;;;19.80;99.90;;;;;;4817842;29;20042;-82
2022/06/08 02:27:39;;;;;;;13.13;6.65;;;19.80;99.90;;;;;;4791125;29;20042;-80
2022/06/08 02:30:16;;;;;;;12.93;6.97;;;20.00;99.90;;;;;;4817225;29;20082;-96
2022/06/08 02:40:26;;;;;;;16.67;7.68;;;21.40;99.90;;;;;;4739470;30;20045;-85
2022/06/08 02:46:08;;;;;;;14.82;6.95;;;19.30;99.90;;;;;;4809969;29;20611;-89
2022/06/08 03:03:39;;;;;;;13.00;6.78;;;20.60;99.90;;;;;;5079549;24;20066;-89
2022/06/08 03:06:21;;;;;;;14.05;7.63;;;21.00;99.90;;;;;;4950878;24;20248;-96
2022/06/08 03:09:05;;;;;;;13.00;6.60;;;20.50;99.80;;;;;;4842596;24;20226;-96
2022/06/08 03:12:22;;;;;;;14.73;7.18;;;19.10;99.80;;;;;;4817155;29;20062;-96
2022/06/08 03:15:08;;;;;;;12.82;7.07;;;21.50;99.90;;;;;;4825964;29;20042;-95
2022/06/08 03:20:30;;;;;;;;;;;20.70;99.30;;;;;;4839650;24;20763;-95
2022/06/08 03:23:21;;;;;;;13.27;6.85;;;19.80;99.90;;;;;;4826083;29;20058;-88
2022/06/08 03:28:24;;;;;;;13.68;6.88;;;20.10;99.90;;;;;;3919261;24;20102;-91
2022/06/08 03:30:59;;;;;;;14.23;6.82;;;20.50;99.90;;;;;;4817683;29;20038;-95
2022/06/08 03:33:34;;;;;;;12.35;7.00;;;20.70;99.70;;;;;;4824157;29;20060;-95
2022/06/08 03:36:04;;;;;;;11.38;6.55;;;21.80;99.80;;;;;;4825197;29;20264;-96
2022/06/08 03:38:33;;;;;;;15.18;7.18;;;20.70;99.10;;;;;;4809694;29;20092;-88
2022/06/08 03:41:10;;;;;;;16.02;7.07;;;20.90;98.90;;;;;;4826965;24;20186;-95
2022/06/08 03:43:36;;;;;;;13.65;7.47;;;20.50;99.00;;;;;;4757059;30;20132;-85
2022/06/08 03:46:42;;;;;;;12.25;6.57;;;20.20;99.70;;;;;;4790566;24;20089;-94
2022/06/08 03:49:12;;;;;;;12.98;6.07;;;20.30;99.10;;;;;;4798073;29;20218;-91
2022/06/08 04:14:44;;;;;;;10.45;5.93;;;21.80;97.10;;;;;;1474396;24;20317;-95
2022/06/08 04:17:54;;;;;;;12.40;6.25;;;21.80;97.30;;;;;;4779213;30;20075;-95
2022/06/08 04:21:03;;;;;;;10.00;5.45;;;23.00;97.20;;;;;;4782297;30;20031;-90
2022/06/08 04:27:18;;;;;;;11.02;6.07;;;20.80;95.80;;;;;;4784111;30;20114;-96
2022/06/08 04:30:06;;;;;;;13.38;6.85;;;22.30;96.20;;;;;;4782779;30;20038;-94
2022/06/08 04:32:39;;;;;;;13.68;7.75;;;23.50;96.20;;;;;;4781811;30;20099;-95
2022/06/08 04:35:07;;;;;;;11.25;6.10;;;22.80;96.50;;;;;;4782909;30;20030;-92
2022/06/08 04:37:39;;;;;;;12.93;6.18;;;22.80;94.90;;;;;;5108777;24;20058;-83
2022/06/08 04:47:19;;;;;;;11.90;6.60;;;24.30;95.30;;;;;;4818194;29;20110;-88
2022/06/08 04:50:23;;;;;;;11.50;7.32;;;23.00;94.60;;;;;;5259812;24;20046;-84
2022/06/08 04:56:14;;;;;;;14.75;7.10;;;24.70;95.10;;;;;;4816395;29;20032;-84
2022/06/08 04:58:49;;;;;;;12.27;6.20;;;23.10;94.40;;;;;;4810819;29;20307;-86
2022/06/08 05:04:28;;;;;;;14.77;7.72;;;23.00;94.40;;;;;;5198627;24;20035;-92
2022/06/08 05:16:55;;;;;;;12.65;7.15;;;21.50;95.60;;;;;;4719484;30;20545;-93
2022/06/08 05:29:57;;;;;;;12.90;6.53;;;22.50;95.40;;;;;;4702890;30;20208;-91
2022/06/08 05:36:08;;;;;;;11.25;6.00;;;23.50;95.90;;;;;;4703345;30;20159;-91
2022/06/08 05:42:24;;;;;;;9.95;5.47;;;23.30;96.00;;;;;;4718444;30;20391;-92
2022/06/08 05:45:12;;;;;;;13.30;6.18;;;21.90;96.20;;;;;;4719648;30;20043;-92
2022/06/08 05:47:43;;;;;;;12.10;5.25;;;21.90;96.50;;;;;;4719654;30;20048;-94
2022/06/08 05:50:18;;;;;;;10.23;4.82;;;22.10;96.60;;;;;;4704904;30;20538;-92
2022/06/08 05:52:50;;;;;;;10.30;5.55;;;21.90;96.50;;;;;;4735776;30;20043;-96
2022/06/08 05:55:44;;;;;;;10.65;5.55;;;21.30;97.90;;;;;;4760509;30;20031;-95
2022/06/08 05:58:10;;;;;;;13.27;7.72;;;21.30;98.30;;;;;;4798637;29;20118;-85
2022/06/08 06:00:38;;;;;;;13.30;8.07;;;21.10;99.80;;;;;;4815995;29;20142;-92
2022/06/08 06:03:10;;;;;;;14.82;8.68;;;20.60;99.90;;;;;;4799775;29;20151;-95
2022/06/08 06:05:56;;;;;;;15.65;6.32;;;20.50;99.90;;;;;;4788235;29;20074;-90
2022/06/08 06:08:41;;;;;;;12.65;6.10;;;21.40;99.90;;;;;;4771328;30;20035;-87
2022/06/08 06:11:07;;;;;;;10.27;5.30;;;21.10;99.90;;;;;;4770319;30;20047;-86
2022/06/08 06:13:36;;;;;;;14.40;7.07;;;21.10;99.30;;;;;;4771010;30;20321;-88
2022/06/08 06:16:04;;;;;;;14.02;7.13;;;21.40;98.70;;;;;;4750369;30;20080;-86
2022/06/08 06:18:30;;;;;;;12.82;6.68;;;;;;;;;;4763704;30;20655;-88
2022/06/08 06:21:15;;;;;;;16.83;8.02;;;21.70;97.90;;;;;;4758417;30;20024;-93
2022/06/08 06:23:50;;;;;;;13.75;7.75;;;21.90;97.70;;;;;;4745227;30;20093;-96
2022/06/08 06:37:26;;;;;;;11.55;6.70;;;22.40;96.90;;;;;;4760152;30;20440;-87
2022/06/08 06:39:52;;;;;;;14.93;6.50;;;22.60;96.30;;;;;;5226161;24;20079;-95
2022/06/08 06:42:25;;;;;;;15.23;7.20;;;22.70;95.70;;;;;;4790169;29;20035;-87
2022/06/08 06:44:51;;;;;;;;;;;22.70;95.40;;;;;;4789866;29;20304;-82
2022/06/08 06:47:18;;;;;;;11.55;6.55;;;22.70;95.70;;;;;;4790874;29;20378;-83
2022/06/08 06:49:44;;;;;;;14.15;8.88;;;22.80;95.30;;;;;;4805201;29;20026;-86
2022/06/08 06:52:14;;;;;;;16.67;9.00;;;23.00;95.40;;;;;;4807731;29;20491;-86
2022/06/08 06:54:41;;;;;;;18.08;10.60;;;22.80;95.60;;;;;;4805847;29;20260;-87
2022/06/08 06:57:07;;;;;;;16.67;9.75;;;22.70;96.00;;;;;;4802029;29;20292;-87
2022/06/08 06:59:33;;;;;;;15.63;9.38;;;22.80;96.20;;;;;;4806055;29;20027;-80
2022/06/08 07:02:12;;;;;;;15.57;9.85;;;23.10;96.10;;;;;;4807035;29;20193;-85
2022/06/08 07:04:40;;;;;;;18.05;10.63;;;22.80;96.30;;;;;;4798233;29;20239;-94
2022/06/08 07:07:06;;;;;;;16.75;9.65;;;22.50;96.30;;;;;;4804880;29;20031;-90
2022/06/08 07:09:44;;;;;;;17.55;10.73;;;22.40;96.20;;;;;;4807424;29;20042;-87
2022/06/08 07:12:12;;;;;;;18.60;10.90;;;22.40;96.70;;;;;;4812305;29;20039;-94
2022/06/08 07:14:40;;;;;;;19.33;10.90;;;22.40;96.60;;;;;;4811758;29;20062;-95
2022/06/08 07:17:06;;;;;;;14.85;9.52;;;22.00;96.90;;;;;;4817206;29;20038;-82
2022/06/08 07:19:31;;;;;;;15.43;8.68;;;22.10;96.90;;;;;;4810003;29;20681;-90
2022/06/08 07:21:59;;;;;;;17.55;9.27;;;22.30;96.60;;;;;;4805252;29;20023;-81
2022/06/08 07:24:31;;;;;;;19.55;10.30;;;21.10;96.10;;;;;;4797834;29;20035;-89
2022/06/08 07:26:58;;;;;;;17.67;9.68;;;22.40;96.30;;;;;;4798388;29;20042;-92
2022/06/08 07:29:29;;;;;;;17.88;10.07;;;22.40;96.30;;;;;;4813374;29;20019;-93
2022/06/08 07:31:59;;;;;;;16.17;9.80;;;22.50;96.20;;;;;;4813656;29;20023;-86
2022/06/08 07:34:28;;;;;;;17.15;9.57;;;21.90;96.70;;;;;;4796344;29;20052;-92
2022/06/08 07:36:55;;;;;;;17.20;9.82;;;22.40;97.40;;;;;;4810812;29;20070;-87
2022/06/08 07:39:26;;;;;;;16.52;10.80;;;21.90;97.00;;;;;;4798768;29;20122;-94
2022/06/08 07:41:55;;;;;;;15.80;9.38;;;22.20;97.00;;;;;;4815763;29;20042;-92
2022/06/08 07:44:21;;;;;;;12.55;7.75;;;22.00;96.90;;;;;;4836657;29;20092;-83
2022/06/08 07:47:02;;;;;;;14.98;8.43;;;22.00;96.40;;;;;;4837942;29;20030;-85
2022/06/08 07:49:37;;;;;;;16.00;8.93;;;22.30;95.90;;;;;;4819221;29;20061;-82
2022/06/08 07:52:26;;;;;;;19.92;10.35;;;22.40;96.00;;;;;;4840224;29;20042;-95
2022/06/08 07:54:53;;;;;;;12.63;8.10;;;22.50;95.10;;;;;;4823710;29;20031;-95
2022/06/08 07:57:26;;;;;;;16.10;7.55;;;22.90;94.20;;;;;;4808845;29;20022;-92
2022/06/08 07:59:53;;;;;;;14.88;8.20;;;22.90;93.90;;;;;;4838960;29;20025;-84
2022/06/08 08:02:19;;;;;;;15.45;7.90;;;23.10;94.90;;;;;;4801193;29;20058;-87
2022/06/08 08:04:48;;;;;;;14.23;7.60;;;23.10;93.10;;;;;;4838006;29;20706;-92
2022/06/08 08:07:14;;;;;;;14.32;8.73;;;23.10;93.90;;;;;;4836667;29;20091;-85
2022/06/08 08:09:40;;;;;;;18.20;8.48;;;23.10;93.80;;;;;;4819672;29;20117;-81
2022/06/08 08:12:12;;;;;;;13.25;8.02;;;23.20;93.80;;;;;;4801661;29;20862;-90
2022/06/08 08:14:50;;;;;;;13.38;6.97;;;24.00;92.30;;;;;;4806392;29;20041;-80
2022/06/08 08:17:15;;;;;;;15.35;7.75;;;23.30;92.80;;;;;;4818396;29;20053;-89
2022/06/08 08:19:42;;;;;;;11.45;6.72;;;23.20;92.00;;;;;;4807754;29;20027;-94
2022/06/08 08:22:09;;;;;;;11.35;6.30;;;23.30;92.70;;;;;;4793020;29;20098;-93
2022/06/08 08:24:35;;;;;;;12.20;6.05;;;23.70;92.30;;;;;;4839387;24;20106;-85
2022/06/08 08:27:02;;;;;;;13.38;6.80;;;25.00;92.60;;;;;;4828013;29;20022;-91
2022/06/08 08:29:28;;;;;;;12.20;6.25;;;23.70;90.40;;;;;;4820726;29;20094;-83
2022/06/08 08:31:54;;;;;;;11.23;6.00;;;24.30;89.90;;;;;;4833014;29;20050;-96
2022/06/08 08:34:20;;;;;;;10.80;5.97;;;24.40;89.70;;;;;;4831341;29;20055;-83
2022/06/08 08:36:46;;;;;;;14.52;6.30;;;24.50;88.30;;;;;;4824085;29;20026;-93
2022/06/08 08:39:11;;;;;;;11.85;6.00;;;24.60;90.30;;;;;;4818482;29;20906;-93
2022/06/08 08:44:38;;;;;;;9.88;4.88;;;24.30;85.60;;;;;;4825040;29;20345;-81
2022/06/08 08:47:32;;;;;;;8.55;4.55;;;24.30;86.10;;;;;;4825183;29;20056;-82
2022/06/08 08:50:09;;;;;;;7.88;4.00;;;24.30;86.00;;;;;;4825433;29;20035;-84
2022/06/08 08:52:38;;;;;;;7.68;3.22;;;24.60;86.30;;;;;;4810168;29;20042;-84
2022/06/08 08:55:17;;;;;;;7.13;3.55;;;24.70;82.30;;;;;;4813022;29;20034;-87
2022/06/08 08:57:53;;;;;;;8.82;3.83;;;24.80;83.70;;;;;;4822278;29;20026;-96
2022/06/08 09:00:37;;;;;;;10.02;3.90;;;25.00;81.30;;;;;;4802797;29;20078;-96
2022/06/08 09:03:43;;;;;;;7.68;3.88;;;24.80;81.00;;;;;;4806397;29;20034;-96
2022/06/08 09:06:24;;;;;;;7.95;4.22;;;24.80;80.70;;;;;;4796500;29;20098;-95
2022/06/08 09:08:53;;;;;;;7.72;3.28;;;25.10;82.40;;;;;;4820441;29;20037;-92
2022/06/08 09:11:24;;;;;;;7.07;3.25;;;25.40;81.20;;;;;;4806905;29;20510;-83
2022/06/08 09:14:13;;;;;;;7.63;3.42;;;23.50;78.50;;;;;;4810647;29;20406;-81
2022/06/08 09:16:45;;;;;;;6.88;3.85;;;25.90;79.00;;;;;;4826320;29;20026;-96
2022/06/08 09:19:31;;;;;;;8.55;3.00;;;25.90;77.70;;;;;;4805884;29;20148;-84
2022/06/08 09:22:17;;;;;;;7.22;2.83;;;26.10;76.90;;;;;;4817989;29;20353;-88
2022/06/08 09:24:54;;;;;;;7.97;3.45;;;26.40;76.40;;;;;;4817477;29;20535;-94
2022/06/08 09:27:57;;;;;;;6.72;3.13;;;26.00;75.20;;;;;;4817062;29;20031;-91
2022/06/08 09:31:43;;;;;;;7.78;3.28;;;23.80;73.80;;;;;;4816987;29;20125;-94
2022/06/08 09:34:37;;;;;;;6.10;2.80;;;27.40;76.80;;;;;;4721432;30;20545;-96
2022/06/08 09:37:24;;;;;;;7.20;2.78;;;25.30;73.10;;;;;;4728601;30;20036;-92
2022/06/08 09:43:41;;;;;;;7.00;2.90;;;27.70;71.10;;;;;;4816756;29;20041;-89
2022/06/08 09:51:25;;;;;;;5.90;2.53;;;27.90;71.60;;;;;;4814393;29;20038;-86
2022/06/08 09:52:23;;;;;;;8.45;4.35;;;27.40;69.90;;;;;;4813228;29;20038;-93
2022/06/08 09:55:09;;;;;;;6.00;2.15;;;27.40;68.40;;;;;;4811138;29;20039;-88
2022/06/08 09:57:56;;;;;;;6.13;2.30;;;27.30;67.60;;;;;;4810353;29;20086;-86
2022/06/08 10:00:30;;;;;;;8.52;3.05;;;26.90;70.00;;;;;;4809894;29;20039;-82
2022/06/08 10:03:08;;;;;;;5.78;2.50;;;26.80;70.50;;;;;;4811490;29;20680;-92
2022/06/08 10:06:04;;;;;;;5.90;2.33;;;26.90;69.30;;;;;;4811470;29;20026;-89
2022/06/08 10:08:42;;;;;;;5.88;2.00;;;26.80;68.70;;;;;;4810827;29;20115;-91
2022/06/08 10:11:36;;;;;;;4.70;2.17;;;26.50;69.90;;;;;;4810591;29;20335;-87
2022/06/08 10:14:21;;;;;;;6.05;2.40;;;26.10;71.20;;;;;;4826071;29;20219;-91
2022/06/08 10:17:01;;;;;;;8.07;2.40;;;25.90;72.30;;;;;;4810750;29;20019;-83
2022/06/08 10:19:46;;;;;;;4.95;1.98;;;25.50;75.30;;;;;;4811401;29;20098;-90
2022/06/08 10:22:13;;;;;;;5.75;2.42;;;25.20;77.70;;;;;;4825243;29;20034;-89
2022/06/08 10:24:58;;;;;;;10.27;3.70;;;25.00;78.30;;;;;;4825179;29;20026;-84
2022/06/08 10:27:57;;;;;;;7.03;2.20;;;24.90;78.30;;;;;;4811086;29;20237;-86
2022/06/08 10:30:50;;;;;;;4.93;2.25;;;24.90;78.70;;;;;;4824601;29;20026;-86
2022/06/08 10:33:46;;;;;;;7.28;2.20;;;25.00;77.00;;;;;;4824975;29;20046;-89
2022/06/08 10:36:15;;;;;;;4.70;1.80;;;24.90;76.60;;;;;;4799456;29;20442;-91
2022/06/08 10:38:42;;;;;;;5.38;2.35;;;24.80;76.00;;;;;;4810323;29;20065;-92
2022/06/08 10:44:43;;;;;;;4.53;1.80;;;25.20;77.50;;;;;;4825397;29;20034;-88
2022/06/08 10:47:25;;;;;;;4.07;2.00;;;25.20;76.90;;;;;;4821256;29;20035;-89
2022/06/08 10:50:16;;;;;;;5.05;1.73;;;25.50;76.80;;;;;;4827004;29;20540;-82
2022/06/08 10:52:45;;;;;;;6.57;2.10;;;26.00;75.60;;;;;;4811507;29;20045;-91
2022/06/08 10:55:14;;;;;;;5.38;2.25;;;26.70;77.20;;;;;;4812264;29;20670;-94
2022/06/08 10:57:43;;;;;;;5.53;2.08;;;27.30;74.00;;;;;;4811921;29;20025;-82
2022/06/08 11:00:52;;;;;;;4.68;2.05;;;27.70;74.10;;;;;;4812096;29;20038;-87
2022/06/08 11:03:36;;;;;;;4.30;2.05;;;28.10;68.80;;;;;;4814238;29;20023;-84
2022/06/08 11:06:09;;;;;;;3.75;1.52;;;28.40;66.50;;;;;;4812370;29;20482;-82
2022/06/08 11:08:56;;;;;;;4.30;2.13;;;28.50;65.50;;;;;;4814588;29;20037;-93
2022/06/08 11:11:50;;;;;;;5.85;2.30;;;28.70;64.20;;;;;;4823228;29;20038;-82
2022/06/08 11:14:48;;;;;;;3.78;2.22;;;29.00;65.00;;;;;;4825142;29;20117;-93
2022/06/08 11:17:48;;;;;;;5.45;2.10;;;29.10;63.20;;;;;;4829684;29;20042;-91
2022/06/08 11:20:34;;;;;;;4.40;1.95;;;29.10;62.10;;;;;;4847230;29;20099;-90
2022/06/08 11:23:16;;;;;;;6.53;2.17;;;29.20;61.80;;;;;;4832592;29;20029;-83
2022/06/08 11:26:25;;;;;;;5.43;2.20;;;29.20;62.90;;;;;;4832465;29;20026;-82
2022/06/08 11:29:18;;;;;;;6.13;2.50;;;30.40;61.70;;;;;;4797829;29;20059;-93
2022/06/08 11:31:44;;;;;;;;;;;29.80;60.20;;;;;;4794073;29;20122;-91
2022/06/08 11:34:40;;;;;;;5.93;2.28;;;30.20;60.00;;;;;;4805846;29;20231;-94
2022/06/08 11:37:21;;;;;;;4.10;2.05;;;29.20;59.00;;;;;;4711966;30;20037;-89
2022/06/08 11:40:14;;;;;;;6.70;2.00;;;29.60;60.10;;;;;;4714606;30;20053;-85
2022/06/08 11:42:53;;;;;;;6.07;2.35;;;29.30;60.80;;;;;;4738919;30;20043;-95
2022/06/08 11:45:38;;;;;;;5.25;2.10;;;29.00;60.80;;;;;;4728680;30;20020;-86
2022/06/08 11:48:32;;;;;;;5.95;2.05;;;28.60;61.10;;;;;;4744843;30;20047;-95
2022/06/08 11:51:10;;;;;;;5.53;2.15;;;28.10;61.50;;;;;;4748964;30;20029;-96
2022/06/08 11:53:42;;;;;;;5.43;2.30;;;27.80;61.40;;;;;;4733141;30;20052;-84
2022/06/08 11:56:42;;;;;;;5.32;2.17;;;27.50;63.70;;;;;;4725270;30;20090;-78
2022/06/08 11:59:36;;;;;;;7.60;2.15;;;26.90;64.10;;;;;;4670605;30;20739;-83
2022/06/08 12:02:24;;;;;;;7.28;2.20;;;26.70;63.70;;;;;;4667682;30;20042;-96
2022/06/08 12:04:57;;;;;;;4.90;2.17;;;25.80;65.90;;;;;;4671713;30;20068;-88
2022/06/08 12:07:36;;;;;;;3.60;1.38;;;24.70;73.10;;;;;;4675758;30;20034;-83
2022/06/08 12:10:18;;;;;;;8.23;2.30;;;24.60;74.00;;;;;;4680355;30;20068;-94
2022/06/08 12:12:45;;;;;;;14.95;2.67;;;22.80;88.60;;;;;;4673316;30;20038;-91
2022/06/08 12:15:44;;;;;;;5.18;1.92;;;21.60;93.30;;;;;;4719430;30;20032;-94
2022/06/08 12:18:27;;;;;;;8.10;2.72;;;22.60;93.80;;;;;;4739273;30;20555;-88
2022/06/08 12:21:22;;;;;;;11.77;2.15;;;19.90;95.00;;;;;;4739023;30;20043;-91
2022/06/08 12:24:04;;;;;;;7.90;2.13;;;18.60;96.00;;;;;;4739724;30;20043;-91
2022/06/08 12:26:41;;;;;;;10.32;2.58;;;18.10;98.80;;;;;;4724143;30;20059;-91
2022/06/08 12:29:13;;;;;;;5.05;1.42;;;17.80;99.90;;;;;;4739654;30;20040;-90
2022/06/08 12:32:03;;;;;;;6.63;2.20;;;18.00;99.90;;;;;;4739428;30;20666;-89
2022/06/08 12:37:28;;;;;;;11.10;3.95;;;19.20;98.00;;;;;;4878911;24;20395;-91
2022/06/08 12:43:38;;;;;;;6.43;2.40;;;20.00;98.60;;;;;;4774181;30;20872;-91
2022/06/08 12:52:36;;;;;;;4.57;2.17;;;19.80;98.20;;;;;;4828915;24;20438;-92
2022/06/08 12:55:28;;;;;;;3.72;1.48;;;20.20;97.90;;;;;;4812289;29;20037;-90
2022/06/08 12:58:03;;;;;;;17.17;2.10;;;20.30;96.80;;;;;;4720757;30;20549;-90
2022/06/08 13:06:33;;;;;;;7.43;2.13;;;21.30;95.20;;;;;;5125111;24;20066;-87
2022/06/08 13:09:24;;;;;;;6.07;1.88;;;21.70;95.80;;;;;;4796341;29;20053;-90
2022/06/08 13:12:02;;;;;;;4.18;1.75;;;21.00;95.00;;;;;;4955114;24;20047;-92
2022/06/08 13:15:02;;;;;;;5.38;1.65;;;21.40;95.20;;;;;;4964580;24;20123;-87
2022/06/08 13:17:28;;;;;;;6.32;2.22;;;21.40;95.30;;;;;;4789052;24;20697;-92
2022/06/08 13:20:01;;;;;;;31.00;11.95;;;21.30;95.40;;;;;;4812230;29;20038;-94
2022/06/08 13:22:36;;;;;;;26.00;10.88;;;18.30;94.10;;;;;;4811877;29;20060;-88
2022/06/08 13:25:23;;;;;;;10.80;4.28;;;19.80;96.80;;;;;;4811822;29;20056;-95
2022/06/08 13:35:08;;;;;;;6.55;1.92;;;18.00;99.90;;;;;;5275439;24;20053;-89
2022/06/08 14:01:22;;;;;;;6.65;1.90;;;20.20;98.00;;;;;;3031743;24;20363;-80
2022/06/08 14:18:24;;;;;;;5.82;2.10;;;21.60;95.40;;;;;;4846465;24;20066;-91
2022/06/08 14:20:51;;;;;;;5.35;1.75;;;21.80;95.10;;;;;;4817563;29;20031;-84
2022/06/08 14:23:18;;;;;;;4.82;1.90;;;22.10;94.30;;;;;;4826964;29;20474;-87
2022/06/08 14:25:57;;;;;;;6.70;2.45;;;22.30;94.00;;;;;;4824430;29;20034;-91
2022/06/08 14:28:45;;;;;;;3.22;1.48;;;22.20;94.30;;;;;;4825592;29;20022;-90
2022/06/08 14:31:29;;;;;;;6.90;1.70;;;22.30;94.00;;;;;;4817280;29;20083;-89
2022/06/08 14:34:39;;;;;;;7.40;1.88;;;22.40;92.40;;;;;;4815353;29;20631;-91
2022/06/08 14:37:18;;;;;;;3.25;1.23;;;22.90;94.00;;;;;;4742940;30;20040;-89
2022/06/08 14:39:59;;;;;;;3.60;1.70;;;22.40;93.90;;;;;;4737283;30;20040;-86
2022/06/08 14:42:30;;;;;;;4.80;1.48;;;22.40;93.90;;;;;;4738467;30;21067;-87
2022/06/08 14:45:21;;;;;;;3.47;1.60;;;22.40;93.50;;;;;;4726864;30;20028;-86
2022/06/08 14:47:48;;;;;;;4.05;1.75;;;22.30;93.60;;;;;;4742986;30;20051;-88
2022/06/08 14:53:15;;;;;;;5.18;1.80;;;22.30;93.10;;;;;;4724145;30;20169;-84
2022/06/08 14:58:33;;;;;;;6.30;1.77;;;20.70;95.70;;;;;;4723906;30;20664;-90
2022/06/08 15:01:15;;;;;;;3.30;1.23;;;20.60;96.20;;;;;;4703992;30;20178;-91
2022/06/08 15:03:59;;;;;;;6.65;1.95;;;19.00;95.70;;;;;;4708693;30;20080;-90
2022/06/08 15:06:28;;;;;;;6.05;1.63;;;21.00;96.00;;;;;;4707811;30;20061;-91
2022/06/08 15:08:54;;;;;;;5.88;1.90;;;21.40;95.40;;;;;;4692222;30;20057;-86
2022/06/08 15:14:22;;;;;;;3.08;1.60;;;21.10;94.70;;;;;;4757359;30;20050;-87
2022/06/08 15:16:48;;;;;;;4.18;1.63;;;21.70;94.70;;;;;;4757486;30;20051;-85
2022/06/08 15:19:36;;;;;;;3.53;1.30;;;21.80;94.70;;;;;;4792865;24;20058;-91
2022/06/08 15:22:11;;;;;;;3.20;1.40;;;21.90;94.40;;;;;;4814448;29;20022;-91
2022/06/08 15:24:48;;;;;;;4.18;1.90;;;22.00;94.30;;;;;;4807387;29;20039;-92
2022/06/08 15:27:45;;;;;;;4.57;1.55;;;22.10;94.60;;;;;;4815338;29;20062;-94
2022/06/08 15:30:37;;;;;;;13.95;1.80;;;20.90;94.30;;;;;;4813718;29;20242;-86
2022/06/08 15:33:04;;;;;;;3.83;1.48;;;22.00;94.30;;;;;;4862695;24;20685;-90
2022/06/08 15:36:13;;;;;;;5.53;1.88;;;22.10;93.70;;;;;;4821253;24;20067;-93
2022/06/08 15:41:29;;;;;;;5.05;1.70;;;23.50;94.30;;;;;;4830248;24;20062;-90
2022/06/08 15:44:04;;;;;;;2.53;1.40;;;22.20;94.50;;;;;;4823204;29;20023;-91
2022/06/08 15:46:56;;;;;;;5.13;1.35;;;22.20;94.20;;;;;;4825348;29;20026;-92
2022/06/08 15:49:35;;;;;;;4.57;1.55;;;20.70;93.90;;;;;;4804666;29;20071;-88
2022/06/08 15:52:45;;;;;;;5.75;1.42;;;21.70;95.10;;;;;;4816126;29;20031;-91
2022/06/08 15:58:44;;;;;;;3.70;1.60;;;21.60;94.70;;;;;;4815626;29;20064;-91
2022/06/08 16:01:10;;;;;;;4.22;1.55;;;21.40;95.20;;;;;;4812266;29;20102;-81
2022/06/08 16:03:44;;;;;;;5.00;1.75;;;22.00;94.30;;;;;;4811783;29;20399;-82
2022/06/08 16:06:12;;;;;;;;;;;22.20;94.50;;;;;;4826047;29;20321;-89
2022/06/08 16:08:41;;;;;;;2.63;1.27;;;22.50;93.60;;;;;;4812722;29;20203;-89
2022/06/08 16:11:07;;;;;;;3.92;1.50;;;22.50;93.80;;;;;;4810635;29;20223;-83
2022/06/08 16:13:33;;;;;;;4.20;1.42;;;22.70;93.30;;;;;;4813248;29;20130;-85
2022/06/08 16:16:11;;;;;;;4.93;1.50;;;22.90;93.00;;;;;;4820048;24;20137;-91
2022/06/08 16:18:44;;;;;;;5.05;1.60;;;22.60;92.50;;;;;;4833761;24;20038;-92
2022/06/08 16:21:32;;;;;;;6.68;1.85;;;22.20;93.20;;;;;;4814881;29;20057;-92
2022/06/08 16:24:05;;;;;;;5.20;1.38;;;21.10;92.00;;;;;;4820103;24;20101;-91
2022/06/08 16:26:37;;;;;;;2.35;1.20;;;20.80;93.30;;;;;;4796441;29;20031;-89
2022/06/08 16:31:54;;;;;;;3.25;1.58;;;21.90;94.00;;;;;;4970056;24;20126;-85
2022/06/08 16:34:20;;;;;;;6.75;1.70;;;22.10;93.60;;;;;;4811794;29;20047;-90
2022/06/08 16:36:48;;;;;;;4.38;1.40;;;22.30;93.50;;;;;;4812743;29;20022;-90
2022/06/08 16:39:15;;;;;;;3.67;1.60;;;22.30;93.70;;;;;;4818533;24;20087;-89
2022/06/08 16:41:43;;;;;;;5.00;1.42;;;22.70;93.20;;;;;;4811526;29;20026;-87
2022/06/08 16:44:22;;;;;;;2.63;1.33;;;22.90;92.50;;;;;;4812799;29;20105;-89
2022/06/08 16:49:53;;;;;;;3.78;1.60;;;23.70;92.40;;;;;;4818851;24;20062;-86
2022/06/08 16:52:35;;;;;;;5.22;1.58;;;22.80;92.50;;;;;;4795121;29;20193;-85
2022/06/08 16:55:19;;;;;;;3.30;1.65;;;23.40;92.70;;;;;;4811402;29;20026;-88
2022/06/08 17:01:00;;;;;;;6.15;1.90;;;22.80;92.90;;;;;;4812279;29;20034;-89
2022/06/08 17:03:29;;;;;;;5.13;1.70;;;22.50;92.80;;;;;;4811127;29;20130;-89
2022/06/08 17:05:54;;;;;;;4.22;1.60;;;23.00;92.70;;;;;;4795715;29;20058;-89
2022/06/08 17:08:27;;;;;;;3.88;1.63;;;22.80;92.20;;;;;;4811477;29;20061;-89
2022/06/08 17:13:57;;;;;;;4.57;1.60;;;21.80;92.30;;;;;;4812242;29;20134;-87
2022/06/08 17:16:26;;;;;;;3.65;1.40;;;21.50;92.80;;;;;;4797129;29;20030;-90
2022/06/08 17:18:51;;;;;;;4.30;1.80;;;20.80;94.70;;;;;;4812318;29;20034;-88
2022/06/08 17:21:20;;;;;;;7.38;2.13;;;20.90;93.80;;;;;;4813219;29;20033;-89
2022/06/08 17:23:45;;;;;;;3.65;1.65;;;20.50;94.30;;;;;;4817457;24;20118;-86
2022/06/08 17:26:14;;;;;;;5.32;1.70;;;20.60;96.60;;;;;;4811857;29;20110;-85
2022/06/08 17:28:53;;;;;;;5.15;1.60;;;19.70;97.10;;;;;;4811927;29;20027;-89
2022/06/08 17:31:19;;;;;;;3.63;1.40;;;20.40;95.90;;;;;;4810026;29;20052;-84
2022/06/08 17:33:45;;;;;;;3.35;1.60;;;20.40;96.40;;;;;;4810125;29;20042;-84
2022/06/08 17:36:23;;;;;;;4.15;3.10;;;20.70;95.50;;;;;;4817119;29;20034;-81
2022/06/08 17:41:24;;;;;;;4.30;2.17;;;;;;;;;;4827717;24;20062;-82
2022/06/08 17:43:51;;;;;;;4.10;1.27;;;20.50;94.50;;;;;;4808593;29;20206;-83
2022/06/08 17:46:20;;;;;;;4.05;1.58;;;19.20;94.70;;;;;;4816448;29;20022;-86